Time;durP1;ratioP1;P1;durP2;ratioP2;P2;SDS_P1;SDS_P2;PMS_P1;PMS_P2;Temp;Humidity;BMP_temperature;BMP_pressure;BME280_temperature;BME280_humidity;BME280_pressure;Samples;Min_cycle;Max_cycle;Signal;HPM_P1;HPM_P2
2023/09/13 00:01:50;;;;;;;7.97;5.20;;;20.00;99.90;;;19.86;100.00;97088.53;5032747;28;20547;-38
2023/09/13 00:04:16;;;;;;;6.18;4.70;;;19.90;99.90;;;19.77;100.00;97095.44;5030989;28;20034;-38
2023/09/13 00:06:42;;;;;;;5.85;4.53;;;19.70;99.90;;;19.64;100.00;97091.03;5035211;28;20021;-39
2023/09/13 00:09:08;;;;;;;6.07;5.10;;;19.70;99.90;;;19.55;100.00;97093.59;5031415;28;20068;-39
2023/09/13 00:11:35;;;;;;;6.28;4.70;;;19.60;99.90;;;19.43;100.00;97096.25;5034468;28;20040;-38
2023/09/13 00:14:01;;;;;;;6.32;5.07;;;19.50;99.90;;;19.42;100.00;97105.25;5028698;28;20029;-38
2023/09/13 00:16:27;;;;;;;7.35;5.53;;;19.40;99.90;;;19.35;100.00;97105.84;5028791;28;20031;-38
2023/09/13 00:18:53;;;;;;;6.05;4.95;;;19.30;99.90;;;19.28;100.00;97110.81;5031914;28;20025;-39
2023/09/13 00:21:20;;;;;;;5.82;5.20;;;19.30;99.90;;;19.24;100.00;97128.91;5031198;28;20568;-40
2023/09/13 00:23:46;;;;;;;6.72;5.35;;;19.20;99.90;;;19.19;100.00;97120.38;5028276;28;20526;-39
2023/09/13 00:26:14;;;;;;;6.50;5.78;;;19.20;99.90;;;19.14;100.00;97113.69;5029214;28;20103;-38
2023/09/13 00:28:39;;;;;;;6.57;5.10;;;19.10;99.90;;;19.05;100.00;97117.91;5032218;28;20427;-38
2023/09/13 00:31:09;;;;;;;8.35;5.70;;;19.10;99.90;;;18.92;100.00;97101.09;5026088;28;20024;-39
2023/09/13 00:33:35;;;;;;;9.65;5.65;;;19.00;99.90;;;18.95;100.00;97108.88;5026549;28;20114;-38
2023/09/13 00:36:00;;;;;;;9.73;5.53;;;19.00;99.90;;;18.90;100.00;97106.56;5028943;28;20469;-40
2023/09/13 00:38:26;;;;;;;7.03;5.22;;;18.90;99.90;;;18.84;100.00;97094.53;5029940;28;20028;-39
2023/09/13 00:40:52;;;;;;;9.65;5.63;;;18.90;99.90;;;18.74;100.00;97090.78;5032780;28;20060;-38
2023/09/13 00:43:18;;;;;;;6.25;5.55;;;18.80;99.90;;;18.68;100.00;97093.91;5025559;28;20551;-39
2023/09/13 00:45:46;;;;;;;8.27;5.50;;;18.80;99.90;;;18.59;100.00;97084.78;5033079;28;20068;-38
2023/09/13 00:48:12;;;;;;;7.25;5.32;;;18.70;99.90;;;18.60;100.00;97085.63;5012718;28;20033;-39
2023/09/13 00:50:37;;;;;;;8.52;5.10;;;18.60;99.90;;;18.62;100.00;97081.88;5032122;28;20063;-38
2023/09/13 00:53:07;;;;;;;7.18;5.18;;;18.60;99.90;;;18.60;100.00;97080.28;5027440;28;20209;-39
2023/09/13 00:55:33;;;;;;;15.65;6.20;;;18.60;99.90;;;18.59;100.00;97052.75;5025067;28;20409;-39
2023/09/13 00:58:00;;;;;;;7.85;5.70;;;18.60;99.90;;;18.53;100.00;97039.00;5030821;28;20148;-39
2023/09/13 01:00:28;;;;;;;8.43;5.53;;;18.60;99.90;;;18.45;100.00;97035.06;5028671;28;22312;-40
2023/09/13 01:02:54;;;;;;;8.70;5.72;;;18.50;99.90;;;18.38;100.00;97036.50;5028955;28;20440;-39
2023/09/13 01:05:20;;;;;;;6.93;5.05;;;18.40;99.90;;;18.33;100.00;97032.47;5026932;28;20549;-38
2023/09/13 01:07:48;;;;;;;7.13;5.10;;;18.40;99.90;;;18.28;100.00;97017.63;5034824;28;20074;-38
2023/09/13 01:10:14;;;;;;;6.43;5.50;;;18.30;99.90;;;18.26;100.00;97002.72;5026932;28;20076;-38
2023/09/13 01:12:40;;;;;;;8.98;6.10;;;18.30;99.90;;;18.25;100.00;96992.97;5029502;28;20060;-38
2023/09/13 01:15:07;;;;;;;7.20;5.55;;;18.30;99.90;;;18.18;100.00;97000.63;5020618;28;20469;-40
2023/09/13 01:17:43;;;;;;;7.60;5.38;;;18.20;99.90;;;18.21;100.00;97019.03;5028494;28;20033;-38
2023/09/13 01:20:30;;;;;;;7.75;5.43;;;18.20;99.90;;;18.20;100.00;97008.50;5026081;28;20111;-38
2023/09/13 01:23:29;;;;;;;8.43;6.43;;;18.20;99.90;;;18.14;100.00;97015.13;5028300;28;20032;-39
2023/09/13 01:26:25;;;;;;;8.68;5.07;;;18.20;99.90;;;18.06;100.00;97023.69;5031076;28;20507;-38
2023/09/13 01:28:54;;;;;;;8.48;6.40;;;18.10;99.90;;;17.90;100.00;97012.47;5029447;28;20037;-39
2023/09/13 01:31:21;;;;;;;8.75;6.07;;;18.10;99.90;;;18.02;100.00;97027.56;5019613;28;20266;-38
2023/09/13 01:33:48;;;;;;;7.32;5.95;;;18.10;99.90;;;17.91;100.00;97017.69;5028130;28;20559;-38
2023/09/13 01:36:14;;;;;;;10.13;6.45;;;18.00;99.90;;;17.96;100.00;97030.66;5024544;28;20120;-38
2023/09/13 01:38:40;;;;;;;7.18;6.10;;;18.00;99.90;;;17.94;100.00;97029.94;5027498;28;20767;-39
2023/09/13 01:41:20;;;;;;;8.63;5.63;;;18.00;99.90;;;17.92;100.00;97032.72;5023161;28;20037;-40
2023/09/13 01:43:50;;;;;;;6.63;5.35;;;17.90;99.90;;;17.91;100.00;97031.03;5027744;28;20032;-38
2023/09/13 01:46:16;;;;;;;6.28;5.38;;;18.00;99.90;;;17.91;100.00;97027.50;5027876;28;20049;-38
2023/09/13 01:48:43;;;;;;;8.95;5.82;;;17.90;99.90;;;17.89;100.00;97018.75;5027252;28;20075;-37
2023/09/13 01:51:09;;;;;;;7.25;5.55;;;18.00;99.90;;;17.96;100.00;97028.00;5027218;28;20033;-38
2023/09/13 01:53:45;;;;;;;7.75;5.68;;;18.00;99.90;;;17.95;100.00;97031.66;5027831;28;20389;-38
2023/09/13 01:56:11;;;;;;;7.13;5.95;;;18.00;99.90;;;17.94;100.00;97040.59;5028108;28;20029;-37
2023/09/13 01:58:36;;;;;;;8.05;5.85;;;18.00;99.90;;;17.94;100.00;97035.25;5033979;28;20312;-38
2023/09/13 02:01:02;;;;;;;7.32;5.78;;;18.00;99.90;;;17.90;100.00;97023.97;5029186;28;20028;-38
2023/09/13 02:03:28;;;;;;;9.95;5.55;;;18.00;99.90;;;17.84;100.00;97015.56;5029653;28;20052;-38
2023/09/13 02:05:54;;;;;;;7.75;5.65;;;18.00;99.90;;;17.85;100.00;97036.78;5020271;28;20532;-38
2023/09/13 02:08:19;;;;;;;7.30;5.88;;;17.90;99.90;;;17.83;100.00;97035.16;5035104;28;20284;-37
2023/09/13 02:10:48;;;;;;;6.10;5.13;;;17.90;99.90;;;17.78;100.00;97040.81;5032615;28;20036;-37
2023/09/13 02:13:14;;;;;;;5.60;4.47;;;17.90;99.90;;;17.74;100.00;97044.69;5017981;28;20065;-38
2023/09/13 02:15:40;;;;;;;6.97;5.28;;;17.80;99.90;;;17.67;100.00;97054.91;5032081;28;20145;-37
2023/09/13 02:18:07;;;;;;;5.72;5.00;;;17.70;99.90;;;17.58;100.00;97044.91;5035747;28;20569;-37
2023/09/13 02:20:34;;;;;;;6.97;5.53;;;17.60;99.90;;;17.51;100.00;97039.16;5030934;28;20396;-37
2023/09/13 02:22:59;;;;;;;5.80;4.93;;;17.60;99.90;;;17.46;100.00;97033.31;5032970;28;20053;-40
2023/09/13 02:25:25;;;;;;;6.00;4.65;;;17.50;99.90;;;17.40;100.00;97024.91;5035204;28;20063;-37
2023/09/13 02:27:51;;;;;;;7.28;5.75;;;17.50;99.90;;;17.33;100.00;97008.47;5032812;28;20472;-39
2023/09/13 02:30:16;;;;;;;6.30;4.80;;;17.40;99.90;;;17.36;100.00;97018.94;5030803;28;20040;-39
2023/09/13 02:32:42;;;;;;;6.93;4.85;;;17.40;99.90;;;17.28;100.00;97008.81;5035298;28;20405;-38
2023/09/13 02:35:09;;;;;;;6.85;4.70;;;17.40;99.90;;;17.35;100.00;97014.56;5034652;28;20115;-37
2023/09/13 02:37:35;;;;;;;6.20;4.88;;;17.40;99.90;;;17.32;100.00;97012.13;5034185;28;20056;-37
2023/09/13 02:40:01;;;;;;;6.15;4.78;;;17.40;99.90;;;17.33;100.00;97022.66;5028219;28;20124;-38
2023/09/13 02:42:27;;;;;;;6.60;4.00;;;17.40;99.90;;;17.31;100.00;97024.56;5021603;28;20033;-37
2023/09/13 02:44:53;;;;;;;8.10;4.30;;;17.40;99.90;;;17.31;100.00;97043.22;5026573;28;20106;-38
2023/09/13 02:47:19;;;;;;;8.68;4.85;;;17.40;99.90;;;17.30;100.00;97046.88;5025429;28;20037;-37
2023/09/13 02:49:45;;;;;;;5.35;4.53;;;17.40;99.90;;;17.29;100.00;97057.63;5027467;28;20396;-40
2023/09/13 02:52:11;;;;;;;5.65;4.68;;;17.40;99.90;;;17.21;100.00;97050.19;5027879;28;20040;-38
2023/09/13 02:54:37;;;;;;;7.40;4.60;;;17.40;99.90;;;17.30;100.00;97067.31;5032470;28;20633;-37
2023/09/13 02:57:03;;;;;;;5.90;4.60;;;17.40;99.90;;;17.30;100.00;97068.19;5007540;28;20021;-38
2023/09/13 02:59:28;;;;;;;7.13;4.75;;;17.40;99.90;;;17.29;100.00;97073.63;5028752;28;20052;-40
2023/09/13 03:01:54;;;;;;;6.50;4.50;;;17.40;99.90;;;17.32;100.00;97076.09;5026842;28;20040;-38
2023/09/13 03:04:20;;;;;;;6.07;4.72;;;17.40;99.90;;;17.29;100.00;97077.13;5023106;28;20040;-38
2023/09/13 03:06:46;;;;;;;5.55;4.70;;;17.40;99.90;;;17.29;100.00;97086.94;5022171;28;20041;-38
2023/09/13 03:09:11;;;;;;;6.13;4.50;;;17.40;99.90;;;17.28;100.00;97078.09;5030233;28;20071;-38
2023/09/13 03:11:37;;;;;;;6.40;4.65;;;17.40;99.90;;;17.28;100.00;97079.91;5026619;28;20447;-37
2023/09/13 03:14:05;;;;;;;4.53;4.07;;;17.40;99.90;;;17.31;100.00;97082.38;5029094;28;20065;-38
2023/09/13 03:16:30;;;;;;;3.92;3.53;;;17.40;99.90;;;17.26;100.00;97077.34;5029179;28;20435;-38
2023/09/13 03:18:58;;;;;;;4.35;3.92;;;17.40;99.90;;;17.34;100.00;97087.50;5030895;28;20100;-39
2023/09/13 03:21:24;;;;;;;5.78;4.45;;;17.40;99.90;;;17.33;100.00;97086.63;5027474;28;20048;-39
2023/09/13 03:23:50;;;;;;;5.50;4.00;;;17.40;99.90;;;17.33;100.00;97083.94;5032516;28;20507;-39
2023/09/13 03:26:22;;;;;;;6.22;3.95;;;17.40;99.90;;;17.21;100.00;97075.94;5027740;28;20025;-38
2023/09/13 03:28:51;;;;;;;4.68;3.92;;;17.40;99.90;;;17.27;100.00;97092.38;5030484;28;20064;-38
2023/09/13 03:31:25;;;;;;;4.00;3.47;;;17.40;99.90;;;17.25;100.00;97090.78;5028480;28;20040;-38
2023/09/13 03:33:53;;;;;;;4.03;3.63;;;17.30;99.90;;;17.20;100.00;97093.75;5030074;28;20118;-40
2023/09/13 03:36:20;;;;;;;5.28;4.20;;;17.30;99.90;;;17.20;100.00;97095.59;5026423;28;20068;-38
2023/09/13 03:38:46;;;;;;;8.70;4.13;;;17.30;99.90;;;17.16;100.00;97094.94;5030077;28;20071;-38
2023/09/13 03:41:15;;;;;;;4.65;4.20;;;17.20;99.90;;;17.14;100.00;97091.53;5032289;28;20079;-39
2023/09/13 03:43:41;;;;;;;4.85;4.07;;;17.20;99.90;;;17.14;100.00;97095.03;5045617;23;20123;-41
2023/09/13 03:46:08;;;;;;;7.15;4.90;;;17.20;99.90;;;17.18;100.00;97093.03;5028265;28;20112;-40
2023/09/13 03:48:35;;;;;;;5.90;4.30;;;17.20;99.90;;;17.11;100.00;97075.75;5027422;28;20667;-40
2023/09/13 03:51:01;;;;;;;5.63;4.28;;;17.20;99.90;;;17.16;100.00;97093.13;5014332;28;20501;-40
2023/09/13 03:53:27;;;;;;;4.88;3.78;;;17.20;99.90;;;17.15;100.00;97090.56;5016715;28;20037;-40
2023/09/13 03:55:54;;;;;;;6.90;4.57;;;17.20;99.90;;;17.12;100.00;97086.31;5021397;28;20048;-40
2023/09/13 03:58:20;;;;;;;5.10;4.30;;;17.20;99.90;;;17.14;100.00;97084.38;5013147;28;20033;-40
2023/09/13 04:00:47;;;;;;;4.78;4.07;;;17.20;99.90;;;17.14;100.00;97079.06;5015907;28;20398;-40
2023/09/13 04:03:15;;;;;;;7.28;4.47;;;17.20;99.90;;;17.12;100.00;97074.78;5013772;28;21492;-39
2023/09/13 04:05:40;;;;;;;5.65;4.53;;;17.20;99.90;;;17.12;100.00;97080.09;5010428;28;20648;-39
2023/09/13 04:08:06;;;;;;;5.18;4.00;;;17.20;99.90;;;17.13;100.00;97081.81;5014187;28;20037;-40
2023/09/13 04:10:32;;;;;;;5.43;4.00;;;17.20;99.90;;;17.15;100.00;97090.56;5013784;28;20039;-40
2023/09/13 04:12:58;;;;;;;8.25;4.20;;;17.20;99.90;;;17.16;100.00;97085.13;5018826;28;20548;-40
2023/09/13 04:15:23;;;;;;;5.80;4.47;;;17.20;99.90;;;17.20;100.00;97092.91;5009983;28;20037;-40
2023/09/13 04:17:49;;;;;;;5.90;4.53;;;17.30;99.90;;;17.18;100.00;97087.69;5010092;28;20056;-39
2023/09/13 04:20:15;;;;;;;6.68;3.90;;;17.30;99.90;;;17.13;100.00;97085.31;4999454;28;20152;-40
2023/09/13 04:22:41;;;;;;;4.80;4.15;;;17.30;99.90;;;17.22;100.00;97096.31;5006751;28;20489;-39
2023/09/13 04:25:08;;;;;;;4.72;4.20;;;17.30;99.90;;;17.23;100.00;97090.91;5012352;28;20025;-41
2023/09/13 04:27:34;;;;;;;6.18;4.07;;;17.30;99.90;;;17.24;100.00;97094.41;5009840;28;21561;-39
2023/09/13 04:30:00;;;;;;;6.50;4.50;;;17.30;99.90;;;17.25;100.00;97085.47;5014006;28;20042;-39
2023/09/13 04:32:26;;;;;;;9.48;4.90;;;17.30;99.90;;;17.27;100.00;97089.72;5015563;28;20110;-40
2023/09/13 04:34:55;;;;;;;6.60;4.68;;;17.30;99.90;;;17.30;100.00;97096.63;5009899;28;20424;-40
2023/09/13 04:37:21;;;;;;;5.75;4.78;;;17.40;99.90;;;17.22;100.00;97073.19;5011780;28;20025;-38
2023/09/13 04:39:47;;;;;;;9.05;5.10;;;17.40;99.90;;;17.33;100.00;97101.75;5015597;28;20405;-40
2023/09/13 04:42:14;;;;;;;5.65;4.35;;;17.40;99.90;;;17.30;100.00;97100.19;5008434;28;20024;-40
2023/09/13 04:44:40;;;;;;;5.85;4.78;;;17.40;99.90;;;17.34;100.00;97111.47;5014032;28;20124;-41
2023/09/13 04:47:05;;;;;;;5.55;4.82;;;17.40;99.90;;;17.35;100.00;97108.72;5007727;28;20392;-41
2023/09/13 04:49:31;;;;;;;10.75;4.72;;;17.50;99.90;;;17.41;100.00;97123.41;5007837;28;20053;-41
2023/09/13 04:51:57;;;;;;;5.28;4.53;;;17.50;99.90;;;17.39;100.00;97124.47;5005087;28;20053;-42
2023/09/13 04:54:23;;;;;;;5.32;4.60;;;17.50;99.90;;;17.38;100.00;97123.63;5007897;28;20204;-40
2023/09/13 04:56:52;;;;;;;5.70;4.70;;;17.50;99.90;;;17.44;100.00;97135.66;5003406;28;20726;-42
2023/09/13 04:59:18;;;;;;;5.30;4.53;;;17.50;99.90;;;17.42;100.00;97127.78;5003716;28;20033;-41
2023/09/13 05:01:44;;;;;;;7.28;5.10;;;17.50;99.90;;;17.45;100.00;97132.06;5003344;28;20465;-40
2023/09/13 05:04:10;;;;;;;7.07;4.70;;;17.50;99.90;;;17.46;100.00;97131.09;4999875;28;21176;-41
2023/09/13 05:06:36;;;;;;;5.10;4.45;;;17.50;99.90;;;17.44;100.00;97125.84;5003572;28;20164;-41
2023/09/13 05:09:03;;;;;;;8.23;5.38;;;17.50;99.90;;;17.43;100.00;97132.16;5006530;28;20022;-41
2023/09/13 05:11:28;;;;;;;6.25;5.28;;;17.50;99.90;;;17.46;100.00;97125.75;5012234;28;20072;-40
2023/09/13 05:14:14;;;;;;;8.18;5.57;;;17.50;99.90;;;17.47;100.00;97127.47;5011573;28;20033;-40
2023/09/13 05:16:40;;;;;;;6.57;4.88;;;17.60;99.90;;;17.46;100.00;97126.63;5014151;28;20029;-41
2023/09/13 05:19:06;;;;;;;9.23;4.78;;;17.60;99.90;;;17.46;100.00;97125.75;5012150;28;20030;-43
2023/09/13 05:21:34;;;;;;;12.57;4.70;;;17.60;99.90;;;17.40;100.00;97115.53;5008017;28;20028;-41
2023/09/13 05:24:00;;;;;;;5.50;4.18;;;17.60;99.90;;;17.44;100.00;97128.50;5011113;28;20034;-42
2023/09/13 05:26:26;;;;;;;5.60;4.80;;;17.60;99.90;;;17.49;100.00;97137.06;5008371;28;20052;-41
2023/09/13 05:28:51;;;;;;;7.30;4.70;;;17.60;99.90;;;17.52;100.00;97142.19;5015481;28;20529;-41
2023/09/13 05:31:17;;;;;;;6.45;4.50;;;17.60;99.90;;;17.55;100.00;97151.81;5012121;28;20106;-41
2023/09/13 05:33:43;;;;;;;5.15;3.70;;;17.60;99.90;;;17.60;100.00;97154.97;5018851;28;20115;-40
2023/09/13 05:36:09;;;;;;;5.93;4.63;;;17.70;99.90;;;17.64;100.00;97153.81;5015160;28;20522;-41
2023/09/13 05:38:35;;;;;;;6.47;4.85;;;17.70;99.90;;;17.61;100.00;97146.03;5014840;28;20064;-40
2023/09/13 05:41:08;;;;;;;4.88;4.00;;;17.80;99.90;;;17.72;100.00;97156.78;5014582;28;20025;-41
2023/09/13 05:43:40;;;;;;;5.53;4.20;;;17.80;99.90;;;17.71;100.00;97154.22;5014572;28;20138;-42
2023/09/13 05:46:07;;;;;;;5.10;4.40;;;17.90;99.90;;;17.76;100.00;97154.75;5012598;28;20118;-41
2023/09/13 05:48:33;;;;;;;5.45;3.80;;;17.90;99.90;;;17.71;100.00;97141.78;5015953;28;20066;-43
2023/09/13 05:50:59;;;;;;;8.02;4.35;;;17.80;99.90;;;17.77;100.00;97145.81;5012641;28;20056;-43
2023/09/13 05:53:25;;;;;;;4.80;4.30;;;17.90;99.90;;;17.74;100.00;97138.88;5012899;28;20044;-41
2023/09/13 05:55:51;;;;;;;6.25;4.20;;;18.00;99.90;;;17.86;100.00;97153.19;5014096;28;20044;-41
2023/09/13 05:58:18;;;;;;;6.72;4.45;;;18.00;99.90;;;17.93;100.00;97165.16;5006112;28;20040;-44
2023/09/13 06:00:47;;;;;;;4.45;4.03;;;18.00;99.90;;;17.96;100.00;97161.41;5019177;28;20438;-41
2023/09/13 06:03:15;;;;;;;6.68;4.93;;;18.10;99.90;;;17.99;100.00;97161.19;5013941;28;20392;-41
2023/09/13 06:05:41;;;;;;;5.55;4.05;;;18.10;99.90;;;17.99;100.00;97163.84;5010560;28;20116;-41
2023/09/13 06:08:07;;;;;;;4.43;3.90;;;18.10;99.90;;;18.00;100.00;97170.91;5014840;28;20029;-42
2023/09/13 06:10:32;;;;;;;4.53;4.03;;;18.10;99.90;;;17.98;100.00;97178.19;5012897;28;20044;-43
2023/09/13 06:12:58;;;;;;;5.38;3.97;;;18.10;99.90;;;17.98;100.00;97177.31;5016869;28;20034;-41
2023/09/13 06:15:24;;;;;;;5.57;4.43;;;18.10;99.90;;;17.95;100.00;97186.38;5015401;28;21008;-41
2023/09/13 06:17:51;;;;;;;5.40;3.88;;;18.00;99.90;;;17.94;100.00;97192.66;5010883;28;20033;-40
2023/09/13 06:20:17;;;;;;;6.45;4.05;;;18.00;99.90;;;17.90;100.00;97183.19;5006663;28;20044;-44
2023/09/13 06:22:43;;;;;;;4.90;3.97;;;18.00;99.90;;;17.88;100.00;97193.97;5004926;28;20485;-41
2023/09/13 06:25:08;;;;;;;4.55;3.58;;;18.00;99.90;;;17.87;100.00;97207.41;5010691;28;20038;-42
2023/09/13 06:27:34;;;;;;;5.20;4.05;;;18.00;99.90;;;17.86;100.00;97211.03;5018098;28;20152;-41
2023/09/13 06:30:00;;;;;;;6.38;4.20;;;17.90;99.90;;;17.84;100.00;97215.59;5012507;28;20033;-42
2023/09/13 06:32:26;;;;;;;4.60;3.95;;;17.90;99.90;;;17.87;100.00;97218.94;5011234;28;20043;-40
2023/09/13 06:34:58;;;;;;;5.07;3.88;;;18.00;99.90;;;17.92;100.00;97224.78;5010847;28;20065;-41
2023/09/13 06:37:25;;;;;;;5.05;4.03;;;18.00;99.90;;;17.97;100.00;97223.63;5013495;28;20458;-41
2023/09/13 06:39:51;;;;;;;8.32;4.53;;;18.00;99.90;;;18.01;100.00;97223.28;5014799;28;20651;-40
2023/09/13 06:42:17;;;;;;;5.88;4.35;;;18.10;99.90;;;18.13;100.00;97227.78;5011256;28;20603;-42
2023/09/13 06:44:43;;;;;;;6.22;4.78;;;18.20;99.90;;;18.15;100.00;97222.34;5015363;28;20028;-41
2023/09/13 06:47:09;;;;;;;5.60;4.20;;;18.30;99.90;;;18.34;100.00;97226.34;5000121;28;20037;-40
2023/09/13 06:49:35;;;;;;;4.75;4.00;;;18.40;99.90;;;18.44;100.00;97227.41;5011707;28;20970;-42
2023/09/13 06:52:02;;;;;;;7.95;4.57;;;18.50;99.90;;;18.55;100.00;97232.00;5007874;28;20025;-45
2023/09/13 06:54:27;;;;;;;4.53;3.83;;;18.60;99.90;;;18.64;100.00;97231.31;5016053;28;20382;-45
2023/09/13 06:56:53;;;;;;;5.32;3.70;;;18.70;99.90;;;18.79;100.00;97230.22;5014630;28;20033;-40
2023/09/13 06:59:22;;;;;;;4.18;3.67;;;18.80;99.90;;;18.93;100.00;97231.03;5012793;28;20051;-41
2023/09/13 07:01:47;;;;;;;5.40;4.00;;;19.00;99.90;;;19.03;100.00;97232.94;5004998;28;20108;-41
2023/09/13 07:04:13;;;;;;;7.30;5.18;;;19.10;99.90;;;19.11;100.00;97224.34;5008906;28;20048;-41
2023/09/13 07:06:40;;;;;;;5.00;4.03;;;19.20;99.90;;;19.34;100.00;97241.34;5006991;28;20417;-42
2023/09/13 07:09:06;;;;;;;6.80;4.97;;;19.40;99.90;;;19.41;100.00;97247.09;5005888;28;20138;-41
2023/09/13 07:11:32;;;;;;;6.25;4.25;;;19.50;99.90;;;19.47;100.00;97251.97;5004939;28;20108;-41
2023/09/13 07:13:59;;;;;;;6.60;4.30;;;19.50;99.90;;;19.42;100.00;97243.44;5004811;28;20063;-41
2023/09/13 07:16:25;;;;;;;5.25;4.50;;;19.50;99.90;;;19.41;100.00;97249.75;5003608;28;20370;-44
2023/09/13 07:18:51;;;;;;;4.60;3.70;;;19.50;99.90;;;19.41;100.00;97244.41;5017227;28;20398;-43
2023/09/13 07:21:17;;;;;;;4.28;3.55;;;19.50;99.90;;;19.42;100.00;97243.44;5007306;28;20247;-43
2023/09/13 07:23:44;;;;;;;4.25;3.58;;;19.50;99.90;;;19.40;100.00;97251.59;5011075;28;20162;-41
2023/09/13 07:26:10;;;;;;;4.32;3.05;;;19.50;99.90;;;19.42;100.00;97251.47;5011571;28;20053;-41
2023/09/13 07:28:36;;;;;;;5.35;3.63;;;19.50;99.90;;;19.49;100.00;97249.16;5012068;28;20040;-42
2023/09/13 07:31:09;;;;;;;5.65;3.22;;;19.50;99.90;;;19.51;100.00;97253.44;5010742;28;20040;-43
2023/09/13 07:33:35;;;;;;;3.80;3.08;;;19.50;99.90;;;19.53;100.00;97256.00;5018894;28;20026;-42
2023/09/13 07:36:01;;;;;;;4.43;2.92;;;19.50;99.90;;;19.58;100.00;97260.03;5021088;28;20048;-40
2023/09/13 07:38:27;;;;;;;3.45;2.78;;;19.60;99.90;;;19.64;100.00;97264.91;5018605;28;20026;-41
2023/09/13 07:40:53;;;;;;;3.80;3.20;;;19.70;99.90;;;19.68;100.00;97270.03;5021199;28;20037;-43
2023/09/13 07:43:19;;;;;;;5.65;3.28;;;19.70;99.90;;;19.75;100.00;97271.31;5022292;28;21024;-42
2023/09/13 07:45:46;;;;;;;3.83;3.45;;;19.80;99.90;;;19.81;100.00;97265.47;5013169;28;20064;-41
2023/09/13 07:48:12;;;;;;;4.07;2.95;;;19.90;99.90;;;19.91;100.00;97277.19;5016709;28;20063;-44
2023/09/13 07:50:44;;;;;;;3.83;3.22;;;19.90;99.90;;;19.95;100.00;97275.13;5017179;28;20068;-41
2023/09/13 07:53:11;;;;;;;5.20;3.40;;;20.00;99.90;;;20.04;100.00;97277.09;5007600;28;20592;-41
2023/09/13 07:55:37;;;;;;;4.28;3.10;;;20.00;99.90;;;20.07;100.00;97284.03;5013359;28;20029;-41
2023/09/13 07:58:05;;;;;;;3.10;2.72;;;20.10;99.90;;;20.10;100.00;97282.00;5021327;28;20354;-41
2023/09/13 08:00:31;;;;;;;4.35;3.22;;;20.10;99.90;;;20.03;100.00;97270.88;5016190;28;20019;-42
2023/09/13 08:02:59;;;;;;;6.00;2.88;;;20.20;99.90;;;20.20;100.00;97280.28;5013642;28;20034;-41
2023/09/13 08:05:25;;;;;;;6.43;3.38;;;20.20;99.90;;;20.28;100.00;97285.06;5012422;28;20054;-42
2023/09/13 08:07:52;;;;;;;4.80;3.38;;;20.30;99.90;;;20.28;100.00;97273.47;5018278;28;20026;-41
2023/09/13 08:10:18;;;;;;;4.93;3.42;;;20.40;99.90;;;20.40;100.00;97273.38;5017547;28;20470;-41
2023/09/13 08:12:44;;;;;;;3.50;2.92;;;20.50;99.90;;;20.43;100.00;97277.63;5016563;28;20063;-43
2023/09/13 08:15:10;;;;;;;4.30;3.33;;;20.50;99.90;;;20.44;100.00;97276.66;5018971;28;20106;-42
2023/09/13 08:17:36;;;;;;;3.97;3.08;;;20.50;99.90;;;20.39;100.00;97285.06;5017762;28;20686;-41
2023/09/13 08:20:07;;;;;;;5.65;3.20;;;20.50;99.90;;;20.30;100.00;97291.13;5010749;28;20662;-43
2023/09/13 08:22:32;;;;;;;8.60;3.30;;;20.40;99.90;;;20.20;100.00;97293.66;5012812;28;20044;-41
2023/09/13 08:24:58;;;;;;;5.78;2.92;;;20.20;99.90;;;20.11;100.00;97297.06;5013069;28;20037;-41
2023/09/13 08:27:24;;;;;;;3.35;3.05;;;20.20;99.90;;;19.92;100.00;97276.22;5009202;28;20546;-42
2023/09/13 08:29:49;;;;;;;4.93;3.65;;;20.10;99.90;;;19.98;100.00;97307.03;5015034;28;20029;-41
2023/09/13 08:32:15;;;;;;;4.20;3.00;;;20.00;99.90;;;19.90;100.00;97301.38;5014180;28;20041;-43
2023/09/13 08:34:41;;;;;;;3.63;2.97;;;20.00;99.90;;;19.81;100.00;97305.63;5010571;28;20089;-42
2023/09/13 08:37:06;;;;;;;3.22;2.90;;;19.90;99.90;;;19.71;100.00;97301.91;5017296;28;20093;-41
2023/09/13 08:39:32;;;;;;;3.15;2.67;;;19.80;99.90;;;19.67;100.00;97308.44;5015038;28;20025;-41
2023/09/13 08:41:58;;;;;;;4.22;3.05;;;19.70;99.90;;;19.62;100.00;97314.16;5017121;28;20493;-41
2023/09/13 08:44:26;;;;;;;4.38;3.10;;;19.70;99.90;;;19.53;100.00;97313.03;5015823;28;20533;-42
2023/09/13 08:46:56;;;;;;;4.07;3.08;;;19.60;99.90;;;19.46;100.00;97315.28;5007685;28;20041;-41
2023/09/13 08:49:23;;;;;;;3.53;3.15;;;19.50;99.90;;;19.44;100.00;97324.41;5016948;28;20034;-41
2023/09/13 08:51:51;;;;;;;5.75;3.58;;;19.50;99.90;;;19.36;100.00;97330.34;5018287;28;20029;-41
2023/09/13 08:54:19;;;;;;;3.28;2.92;;;19.40;99.90;;;19.34;100.00;97326.91;5014904;28;20029;-41
2023/09/13 08:56:45;;;;;;;3.35;2.78;;;19.40;99.90;;;19.35;100.00;97325.94;5015119;28;20025;-42
2023/09/13 08:59:16;;;;;;;3.90;3.33;;;19.40;99.90;;;19.48;100.00;97327.72;5015662;28;20509;-41
2023/09/13 09:01:48;;;;;;;4.88;3.70;;;19.60;99.90;;;19.65;100.00;97336.19;5014354;28;20032;-41
2023/09/13 09:04:16;;;;;;;5.93;3.10;;;19.70;99.90;;;19.86;100.00;97337.38;5011191;28;20037;-44
2023/09/13 09:06:43;;;;;;;4.93;3.03;;;19.90;99.90;;;19.95;100.00;97317.94;5013688;28;20056;-42
2023/09/13 09:09:09;;;;;;;4.78;3.00;;;20.10;99.90;;;20.08;100.00;97336.59;5012655;28;20029;-40
2023/09/13 09:11:38;;;;;;;3.83;2.78;;;20.10;99.90;;;20.20;100.00;97336.50;5008663;28;20397;-43
2023/09/13 09:14:04;;;;;;;4.85;2.97;;;20.20;99.90;;;20.35;100.00;97338.97;5011120;28;20344;-43
2023/09/13 09:16:32;;;;;;;3.40;2.58;;;20.40;99.90;;;20.46;100.00;97336.31;5005773;28;20642;-42
2023/09/13 09:19:00;;;;;;;4.35;3.00;;;20.50;99.90;;;20.56;100.00;97342.66;5019555;28;20037;-42
2023/09/13 09:21:26;;;;;;;3.72;2.80;;;20.60;99.90;;;20.58;100.00;97345.22;5013507;28;20099;-42
2023/09/13 09:23:53;;;;;;;4.43;3.10;;;20.70;99.90;;;20.56;100.00;97333.75;5012920;28;20033;-42
2023/09/13 09:26:20;;;;;;;6.72;3.10;;;20.70;99.90;;;20.51;100.00;97341.31;5014634;28;20037;-41
2023/09/13 09:28:46;;;;;;;3.22;2.67;;;20.70;99.90;;;20.56;100.00;97344.47;5014310;28;20029;-43
2023/09/13 09:31:12;;;;;;;4.13;2.92;;;20.60;99.90;;;20.46;100.00;97349.72;5013295;28;20056;-41
2023/09/13 09:33:39;;;;;;;4.05;2.83;;;20.60;99.90;;;20.33;100.00;97352.50;5011069;28;20030;-41
2023/09/13 09:36:08;;;;;;;5.93;3.53;;;20.50;99.90;;;20.21;100.00;97346.25;5017674;28;20103;-42
2023/09/13 09:38:35;;;;;;;3.60;2.78;;;20.50;99.90;;;20.31;100.00;97357.09;5018038;28;20033;-43
2023/09/13 09:41:02;;;;;;;5.18;3.50;;;20.50;99.90;;;20.41;100.00;97351.91;5012111;28;20045;-41
2023/09/13 09:43:29;;;;;;;7.13;3.95;;;20.60;99.90;;;20.48;100.00;97342.41;5017536;28;20038;-42
2023/09/13 09:45:56;;;;;;;4.05;3.50;;;20.60;99.90;;;20.65;100.00;97364.38;5011275;28;20642;-41
2023/09/13 09:48:22;;;;;;;4.90;3.53;;;20.70;99.90;;;20.72;100.00;97358.41;5009399;28;20659;-40
2023/09/13 09:50:52;;;;;;;6.32;3.78;;;20.80;99.90;;;20.77;100.00;97360.72;5015302;28;20052;-40
2023/09/13 09:53:19;;;;;;;8.60;4.05;;;20.90;99.90;;;20.81;100.00;97358.66;5011661;28;20454;-42
2023/09/13 09:55:45;;;;;;;4.85;3.40;;;21.00;99.90;;;20.73;100.00;97346.72;5003207;28;21574;-42
2023/09/13 09:58:11;;;;;;;3.72;2.95;;;21.00;99.90;;;20.90;100.00;97364.13;5009165;28;20393;-40
2023/09/13 10:00:47;;;;;;;4.68;3.55;;;21.00;99.90;;;21.01;100.00;97359.75;5009865;28;20021;-40
2023/09/13 10:03:17;;;;;;;4.78;3.22;;;21.10;99.90;;;21.00;100.00;97358.91;5010870;28;20037;-40
2023/09/13 10:06:09;;;;;;;4.75;3.65;;;21.10;99.90;;;21.07;100.00;97360.13;5010944;28;20410;-41
2023/09/13 10:08:46;;;;;;;3.75;3.38;;;21.20;99.90;;;21.06;100.00;97366.44;5011520;28;20034;-40
2023/09/13 10:11:31;;;;;;;5.63;3.20;;;21.30;99.90;;;21.14;100.00;97358.66;5012839;28;20034;-40
2023/09/13 10:13:57;;;;;;;3.70;2.90;;;21.30;99.90;;;21.09;100.00;97363.53;5020037;28;20029;-41